createdAt,value
2023-03-27T06:00:26.299Z,0.30
2023-03-27T06:02:56.273Z,0.30
2023-03-27T06:05:23.378Z,0.60
2023-03-27T06:07:51.126Z,0.25
2023-03-27T06:10:20.253Z,0.68
2023-03-27T06:12:49.143Z,0.17
2023-03-27T06:15:16.290Z,0.17
2023-03-27T06:17:43.814Z,0.30
2023-03-27T06:20:12.813Z,0.10
2023-03-27T06:22:45.778Z,0.10
2023-03-27T06:25:13.921Z,0.20
2023-03-27T06:27:45.430Z,0.20
2023-03-27T06:30:13.981Z,0.20
2023-03-27T06:32:49.212Z,0.20
2023-03-27T06:35:16.358Z,0.20
2023-03-27T06:37:48.296Z,0.10
2023-03-27T06:40:22.789Z,0.00
2023-03-27T06:42:59.719Z,0.10
2023-03-27T06:45:29.892Z,0.08
2023-03-27T06:48:15.453Z,0.10
2023-03-27T06:50:46.769Z,0.10
2023-03-27T06:55:49.003Z,0.10
2023-03-27T06:58:21.845Z,0.13
2023-03-27T07:00:50.129Z,0.03
2023-03-27T07:03:18.215Z,0.10
2023-03-27T07:05:45.533Z,0.10
2023-03-27T07:10:56.366Z,0.20
2023-03-27T07:13:33.890Z,0.20
2023-03-27T07:16:01.897Z,0.27
2023-03-27T07:18:28.717Z,0.28
2023-03-27T07:20:55.855Z,0.20
2023-03-27T07:23:22.748Z,0.25
2023-03-27T07:25:50.239Z,0.20
2023-03-27T07:28:18.551Z,0.40
2023-03-27T07:30:45.457Z,0.20
2023-03-27T07:33:13.014Z,0.60
2023-03-27T07:35:45.237Z,0.40
2023-03-27T07:38:12.456Z,0.40
2023-03-27T07:40:40.828Z,0.30
2023-03-27T07:43:07.970Z,0.68
2023-03-27T07:45:35.817Z,0.50
2023-03-27T07:48:08.750Z,0.40
2023-03-27T07:50:36.258Z,0.50
2023-03-27T07:53:06.617Z,0.53
2023-03-27T07:55:36.878Z,1.15
2023-03-27T07:58:04.068Z,0.70
2023-03-27T08:00:33.236Z,0.77
2023-03-27T08:03:10.960Z,0.70
2023-03-27T08:05:38.439Z,0.50
2023-03-27T08:08:07.187Z,0.50
2023-03-27T08:10:34.050Z,0.95
2023-03-27T08:13:01.087Z,0.68
2023-03-27T08:15:27.853Z,0.70
2023-03-27T08:17:56.871Z,0.60
2023-03-27T08:20:24.032Z,0.50
2023-03-27T08:22:54.233Z,0.70
2023-03-27T08:25:23.836Z,0.90
2023-03-27T08:27:50.823Z,0.50
2023-03-27T08:30:19.047Z,0.80
2023-03-27T08:32:47.169Z,0.50
2023-03-27T08:35:14.365Z,0.60
2023-03-27T08:37:41.755Z,0.70
2023-03-27T08:40:17.732Z,0.60
2023-03-27T08:42:45.251Z,0.70
2023-03-27T08:45:19.980Z,1.00
2023-03-27T08:47:52.128Z,1.30
2023-03-27T08:50:28.150Z,2.30
2023-03-27T08:52:54.974Z,2.45
2023-03-27T08:55:32.376Z,1.90
2023-03-27T08:57:59.361Z,1.20
2023-03-27T09:00:31.942Z,1.30
2023-03-27T09:03:26.203Z,1.08
2023-03-27T09:06:08.577Z,1.33
2023-03-27T09:09:02.520Z,2.07
2023-03-27T09:11:37.688Z,2.15
2023-03-27T09:14:18.022Z,2.20
2023-03-27T09:16:49.682Z,2.03
2023-03-27T09:19:27.112Z,2.80
2023-03-27T09:21:58.081Z,1.03
2023-03-27T09:24:34.768Z,0.93
2023-03-27T09:27:14.095Z,1.48
2023-03-27T09:29:41.563Z,1.02
2023-03-27T09:32:16.093Z,1.00
2023-03-27T09:34:43.205Z,1.03
2023-03-27T09:37:11.949Z,1.08
2023-03-27T09:39:41.836Z,1.00
2023-03-27T09:42:19.495Z,1.30
2023-03-27T09:44:50.477Z,0.90
2023-03-27T09:47:45.622Z,1.50
2023-03-27T09:50:26.295Z,0.90
2023-03-27T09:53:07.210Z,1.05
2023-03-27T09:55:34.943Z,1.40
2023-03-27T09:58:15.435Z,1.05
2023-03-27T10:00:42.304Z,0.90
2023-03-27T10:03:18.544Z,1.00
2023-03-27T10:05:47.016Z,0.85
2023-03-27T10:08:37.738Z,1.08
2023-03-27T10:11:10.834Z,1.00
2023-03-27T10:13:37.593Z,0.70
2023-03-27T10:16:06.146Z,0.95
2023-03-27T10:18:42.384Z,1.00
2023-03-27T10:21:12.303Z,0.88
2023-03-27T10:23:49.285Z,1.05
2023-03-27T10:26:21.832Z,1.03
2023-03-27T10:28:51.574Z,1.13
2023-03-27T10:31:36.369Z,0.68
2023-03-27T10:34:06.272Z,0.85
2023-03-27T10:36:40.988Z,0.85
2023-03-27T10:39:14.016Z,1.20
2023-03-27T10:41:41.747Z,1.00
2023-03-27T10:44:17.999Z,0.90
2023-03-27T10:46:51.797Z,0.88
2023-03-27T10:49:44.301Z,0.70
2023-03-27T10:52:48.140Z,0.73
2023-03-27T10:55:44.975Z,0.77
2023-03-27T10:58:22.380Z,0.75
2023-03-27T11:00:56.321Z,0.60
2023-03-27T11:03:39.781Z,0.73
2023-03-27T11:06:12.450Z,0.60
2023-03-27T11:08:56.777Z,0.90
2023-03-27T11:11:28.456Z,1.05
2023-03-27T11:13:56.925Z,1.20
2023-03-27T11:16:31.970Z,1.02
2023-03-27T11:19:22.540Z,3.30
2023-03-27T11:21:55.110Z,6.10
2023-03-27T11:24:39.372Z,6.55
2023-03-27T11:27:27.997Z,8.23
2023-03-27T11:30:14.310Z,8.27
2023-03-27T11:32:49.513Z,8.77
2023-03-27T11:35:24.348Z,9.05
2023-03-27T11:37:51.714Z,8.95
2023-03-27T11:40:24.025Z,8.60
2023-03-27T11:42:51.108Z,9.13
2023-03-27T11:45:23.324Z,8.33
2023-03-27T11:48:15.447Z,9.00
2023-03-27T11:50:48.539Z,8.13
2023-03-27T11:53:36.920Z,8.60
2023-03-27T11:56:25.243Z,7.80
2023-03-27T11:59:04.448Z,7.17
2023-03-27T12:01:51.077Z,8.35
2023-03-27T12:04:23.565Z,9.20
2023-03-27T12:07:04.344Z,8.23
2023-03-27T12:09:37.837Z,8.93
2023-03-27T12:12:13.308Z,7.77
2023-03-27T12:15:05.036Z,8.82
2023-03-27T12:17:46.375Z,8.50
2023-03-27T12:20:53.034Z,8.05
2023-03-27T12:23:39.370Z,7.47
2023-03-27T12:26:14.821Z,8.43
2023-03-27T12:29:00.679Z,5.90
2023-03-27T12:31:52.767Z,5.95
2023-03-27T12:34:41.090Z,5.10
2023-03-27T12:37:12.186Z,4.55
2023-03-27T12:39:54.204Z,3.50
2023-03-27T12:42:43.873Z,3.20
2023-03-27T12:45:26.958Z,3.42
2023-03-27T12:48:16.864Z,3.00
2023-03-27T12:50:46.849Z,2.60
2023-03-27T12:53:39.936Z,2.70
2023-03-27T12:56:19.478Z,2.05
2023-03-27T12:58:51.544Z,2.45
2023-03-27T13:01:45.516Z,2.10
2023-03-27T13:04:35.182Z,1.75
2023-03-27T13:07:43.392Z,1.47
2023-03-27T13:10:31.677Z,1.30
2023-03-27T13:13:23.058Z,1.20
2023-03-27T13:15:59.009Z,1.50
2023-03-27T13:18:48.285Z,1.40
2023-03-27T13:21:57.680Z,1.40
2023-03-27T13:24:33.277Z,0.90
2023-03-27T13:27:16.778Z,1.00
2023-03-27T13:29:48.615Z,1.00
2023-03-27T13:32:37.843Z,1.15
2023-03-27T13:35:23.080Z,1.17
2023-03-27T13:37:49.825Z,0.88
2023-03-27T13:40:29.545Z,1.15
2023-03-27T13:43:22.196Z,0.75
2023-03-27T13:45:52.246Z,1.38
2023-03-27T13:48:56.149Z,0.47
2023-03-27T13:51:26.531Z,0.55
2023-03-27T13:54:26.546Z,1.00
2023-03-27T13:57:11.603Z,1.17
2023-03-27T14:00:13.549Z,1.52
2023-03-27T14:02:40.511Z,0.93
2023-03-27T14:05:09.070Z,0.95
2023-03-27T14:07:59.993Z,1.50
2023-03-27T14:10:35.797Z,1.88
2023-03-27T14:13:30.571Z,1.60
2023-03-27T14:16:28.173Z,1.77
2023-03-27T14:19:26.886Z,2.08
2023-03-27T14:22:05.598Z,2.08
2023-03-27T14:24:46.822Z,1.88
2023-03-27T14:27:19.161Z,1.60
2023-03-27T14:29:49.446Z,1.80
2023-03-27T14:32:18.116Z,1.70
2023-03-27T14:34:54.035Z,2.08
2023-03-27T14:37:32.320Z,1.67
2023-03-27T14:40:00.838Z,1.35
2023-03-27T14:42:32.023Z,1.30
2023-03-27T14:45:22.012Z,1.23
2023-03-27T14:47:52.340Z,1.60
2023-03-27T14:50:19.811Z,1.45
2023-03-27T14:52:51.621Z,1.15
2023-03-27T14:55:22.061Z,1.77
2023-03-27T14:57:50.460Z,1.15
2023-03-27T15:00:23.535Z,2.17
2023-03-27T15:02:52.316Z,2.00
2023-03-27T15:05:22.567Z,1.60
2023-03-27T15:07:49.627Z,2.40
2023-03-27T15:10:24.233Z,1.60
2023-03-27T15:12:51.532Z,1.42
2023-03-27T15:15:38.522Z,1.38
2023-03-27T15:18:32.938Z,1.42
2023-03-27T15:21:05.399Z,1.00
2023-03-27T15:23:36.801Z,1.08
2023-03-27T15:26:28.729Z,1.02
2023-03-27T15:29:08.995Z,1.08
2023-03-27T15:31:36.371Z,0.82
2023-03-27T15:34:36.509Z,1.03
2023-03-27T15:37:06.218Z,1.35
2023-03-27T15:39:34.385Z,1.05
2023-03-27T15:42:06.469Z,0.85
2023-03-27T15:44:34.695Z,1.00
2023-03-27T15:47:01.657Z,1.07
2023-03-27T15:49:37.844Z,1.20
2023-03-27T15:52:30.269Z,1.63
2023-03-27T15:54:57.505Z,1.10
2023-03-27T15:57:26.521Z,0.85
2023-03-27T16:00:01.774Z,1.20
2023-03-27T16:02:28.954Z,0.80
2023-03-27T16:04:57.175Z,0.98
2023-03-27T16:07:44.277Z,0.77
2023-03-27T16:10:11.309Z,1.23
2023-03-27T16:12:40.804Z,0.93
2023-03-27T16:15:28.073Z,0.80
2023-03-27T16:17:57.245Z,1.00
2023-03-27T16:20:23.934Z,1.00
2023-03-27T16:22:51.669Z,0.93
2023-03-27T16:25:18.715Z,0.93
2023-03-27T16:27:54.756Z,0.80
2023-03-27T16:30:29.329Z,0.90
2023-03-27T16:32:56.224Z,0.60
2023-03-27T16:35:22.970Z,0.90
2023-03-27T16:37:50.414Z,1.27
2023-03-27T16:40:17.298Z,1.40
2023-03-27T16:42:44.119Z,1.05
2023-03-27T16:45:11.596Z,0.95
2023-03-27T16:47:38.892Z,1.10
2023-03-27T16:52:35.867Z,0.80
2023-03-27T16:55:03.541Z,1.40
2023-03-27T16:57:32.109Z,1.13
2023-03-27T16:59:58.778Z,0.82
2023-03-27T17:02:26.640Z,0.83
2023-03-27T17:04:59.726Z,1.05
2023-03-27T17:07:27.553Z,0.50
2023-03-27T17:09:54.736Z,0.65
2023-03-27T17:12:21.515Z,1.05
2023-03-27T17:14:48.357Z,0.90
2023-03-27T17:17:15.479Z,0.80
2023-03-27T17:19:42.320Z,1.23
2023-03-27T17:22:09.543Z,1.05
2023-03-27T17:24:49.102Z,0.80
2023-03-27T17:27:20.427Z,1.10
2023-03-27T17:29:47.198Z,0.77
2023-03-27T17:32:14.472Z,1.33
2023-03-27T17:34:41.603Z,0.88
2023-03-27T17:37:08.408Z,1.10
2023-03-27T17:39:35.225Z,1.10
2023-03-27T17:42:02.153Z,0.70
2023-03-27T17:44:28.873Z,1.38
2023-03-27T17:46:55.707Z,1.13
2023-03-27T17:49:22.466Z,1.13
2023-03-27T17:51:49.243Z,1.20
2023-03-27T17:54:16.134Z,0.73
2023-03-27T17:56:43.041Z,0.90
2023-03-27T17:59:10.218Z,1.08
2023-03-27T18:01:37.126Z,0.68
2023-03-27T18:04:04.038Z,0.90
2023-03-27T18:06:31.143Z,1.00
2023-03-27T18:08:58.155Z,0.82
2023-03-27T18:11:24.986Z,0.90
2023-03-27T18:13:53.198Z,0.77
2023-03-27T18:16:21.804Z,0.93
2023-03-27T18:18:48.912Z,1.05
2023-03-27T18:21:16.477Z,1.10
2023-03-27T18:23:46.071Z,0.95
2023-03-27T18:26:14.208Z,0.82
2023-03-27T18:28:40.941Z,0.77
2023-03-27T18:31:09.882Z,1.08
2023-03-27T18:33:36.901Z,0.77
2023-03-27T18:36:10.668Z,0.85
2023-03-27T18:38:41.867Z,0.90
2023-03-27T18:41:09.611Z,0.90
2023-03-27T18:43:36.631Z,1.17
2023-03-27T18:46:05.829Z,1.00
2023-03-27T18:48:33.413Z,0.90
2023-03-27T18:51:02.853Z,0.85
2023-03-27T18:53:30.136Z,0.70
2023-03-27T18:55:58.580Z,0.93
2023-03-27T18:58:27.542Z,0.85
2023-03-27T19:00:57.860Z,0.50
2023-03-27T19:03:26.685Z,0.90
2023-03-27T19:05:53.517Z,0.80
2023-03-27T19:08:21.050Z,0.80
2023-03-27T19:10:47.980Z,0.90
2023-03-27T19:13:14.806Z,0.70
2023-03-27T19:15:42.055Z,0.85
2023-03-27T19:18:09.220Z,1.10
2023-03-27T19:20:36.093Z,0.82
2023-03-27T19:23:03.137Z,0.70
2023-03-27T19:25:33.437Z,1.00
2023-03-27T19:28:04.052Z,0.60
2023-03-27T19:30:32.316Z,0.90
2023-03-27T19:32:59.172Z,0.95
2023-03-27T19:35:26.582Z,1.35
2023-03-27T19:37:54.388Z,0.85
2023-03-27T19:40:21.333Z,0.82
2023-03-27T19:42:48.343Z,0.80
2023-03-27T19:45:15.332Z,0.65
2023-03-27T19:47:42.589Z,0.70
2023-03-27T19:50:09.916Z,1.00
2023-03-27T19:52:37.570Z,0.60
2023-03-27T19:55:04.801Z,0.70
2023-03-27T19:57:31.511Z,0.50
2023-03-27T19:59:58.188Z,0.98
2023-03-27T20:02:25.210Z,0.60
2023-03-27T20:04:52.020Z,0.60
2023-03-27T20:07:18.835Z,0.63
2023-03-27T20:09:45.741Z,0.68
2023-03-27T20:12:12.740Z,0.90
2023-03-27T20:14:39.532Z,0.70
2023-03-27T20:17:12.211Z,0.57
2023-03-27T20:19:49.135Z,0.43
2023-03-27T20:22:18.379Z,0.70
2023-03-27T20:24:45.213Z,0.65
2023-03-27T20:27:12.021Z,0.30
2023-03-27T20:29:38.702Z,0.40
2023-03-27T20:32:08.287Z,0.50
2023-03-27T20:34:35.615Z,0.80
2023-03-27T20:37:03.690Z,0.73
2023-03-27T20:39:32.147Z,0.50
2023-03-27T20:41:59.307Z,0.75
2023-03-27T20:44:35.398Z,0.40
2023-03-27T20:47:11.163Z,0.40
2023-03-27T20:49:45.371Z,0.50
2023-03-27T20:52:17.673Z,0.40
2023-03-27T20:54:44.583Z,0.73
2023-03-27T20:57:11.835Z,0.50
2023-03-27T20:59:38.809Z,0.45
2023-03-27T21:02:05.790Z,0.70
2023-03-27T21:04:32.562Z,0.38
2023-03-27T21:06:59.394Z,0.38
2023-03-27T21:09:27.219Z,0.70
2023-03-27T21:11:55.150Z,0.47
2023-03-27T21:14:22.566Z,0.50
2023-03-27T21:16:49.411Z,0.45
2023-03-27T21:19:17.169Z,0.70
2023-03-27T21:21:44.673Z,0.33
2023-03-27T21:24:11.475Z,0.38
2023-03-27T21:26:38.248Z,0.52
2023-03-27T21:29:05.475Z,0.60
2023-03-27T21:31:32.227Z,0.50
2023-03-27T21:33:59.800Z,0.67
2023-03-27T21:36:29.304Z,0.20
2023-03-27T21:38:57.093Z,0.50
2023-03-27T21:41:23.927Z,0.50
2023-03-27T21:43:50.739Z,0.40
2023-03-27T21:46:17.686Z,0.20
2023-03-27T21:48:51.490Z,0.43
2023-03-27T21:51:18.795Z,0.50
2023-03-27T21:53:45.978Z,0.70
2023-03-27T21:56:13.265Z,0.55
2023-03-27T21:58:40.099Z,0.40
2023-03-27T22:01:07.152Z,0.60
2023-03-27T22:03:34.020Z,0.60
2023-03-27T22:06:12.456Z,0.40
2023-03-27T22:08:41.524Z,0.70
2023-03-27T22:11:08.910Z,0.33
2023-03-27T22:13:36.487Z,0.47
2023-03-27T22:16:12.350Z,0.55
2023-03-27T22:18:39.712Z,0.40
2023-03-27T22:21:13.962Z,0.52
2023-03-27T22:23:40.704Z,0.50
2023-03-27T22:26:07.399Z,0.47
2023-03-27T22:28:34.161Z,0.60
2023-03-27T22:31:00.911Z,0.30
2023-03-27T22:33:27.615Z,0.43
2023-03-27T22:35:54.345Z,0.60
2023-03-27T22:38:21.097Z,0.60
2023-03-27T22:40:47.822Z,0.45
2023-03-27T22:43:22.820Z,0.40
2023-03-27T22:45:50.880Z,0.65
2023-03-27T22:48:17.634Z,0.60
2023-03-27T22:50:45.728Z,0.50
2023-03-27T22:53:12.494Z,0.45
2023-03-27T22:55:39.262Z,0.40
2023-03-27T22:58:05.985Z,0.43
2023-03-27T23:00:32.621Z,0.57
2023-03-27T23:02:59.408Z,0.75
2023-03-27T23:05:26.188Z,0.50
2023-03-27T23:07:52.936Z,0.52
2023-03-27T23:10:19.688Z,0.63
2023-03-27T23:12:46.469Z,0.53
2023-03-27T23:15:13.235Z,0.50
2023-03-27T23:17:39.987Z,0.50
2023-03-27T23:20:07.162Z,0.70
2023-03-27T23:22:33.850Z,0.60
2023-03-27T23:25:00.728Z,0.50
2023-03-27T23:27:27.434Z,0.75
2023-03-27T23:29:54.219Z,0.52
2023-03-27T23:32:21.237Z,0.40
2023-03-27T23:34:48.024Z,0.45
2023-03-27T23:37:14.698Z,0.50
2023-03-27T23:39:41.581Z,0.57
2023-03-27T23:42:08.365Z,1.00
2023-03-27T23:44:35.320Z,0.45
2023-03-27T23:47:02.186Z,0.40
2023-03-27T23:49:28.893Z,0.37
2023-03-27T23:51:55.545Z,0.40
2023-03-27T23:54:22.476Z,0.60
2023-03-27T23:56:49.254Z,0.57
2023-03-27T23:59:15.947Z,0.80
